Time;durP1;ratioP1;P1;durP2;ratioP2;P2;SDS_P1;SDS_P2;PMS_P1;PMS_P2;Temp;Humidity;BMP_temperature;BMP_pressure;BME280_temperature;BME280_humidity;BME280_pressure;Samples;Min_cycle;Max_cycle;Signal;HPM_P1;HPM_P2
2023/07/15 00:00:18;;;;;;;14.00;9.82;;;;;;;20.39;48.63;100059.00;679698;29;1059;-78
2023/07/15 00:00:41;;;;;;;14.45;10.13;;;;;;;20.26;48.54;100032.81;677149;29;999;-78
2023/07/15 00:01:09;;;;;;;12.88;9.80;;;;;;;20.25;49.05;100030.19;684954;28;1083;-78
2023/07/15 00:01:36;;;;;;;12.17;9.50;;;;;;;20.26;49.09;100043.41;690217;28;988;-79
2023/07/15 00:01:56;;;;;;;12.65;9.27;;;;;;;20.22;48.97;100028.50;687795;28;1038;-77
2023/07/15 00:02:18;;;;;;;13.40;8.83;;;;;;;20.31;48.99;100048.59;685169;28;1053;-77
2023/07/15 00:02:42;;;;;;;14.52;8.95;;;;;;;20.19;49.14;100031.22;682551;29;1061;-78
2023/07/15 00:03:03;;;;;;;13.35;8.02;;;;;;;20.19;49.28;100025.03;687353;28;1249;-78
2023/07/15 00:03:23;;;;;;;16.10;8.48;;;;;;;20.21;49.35;100033.81;685096;28;1297;-77
2023/07/15 00:03:47;;;;;;;15.93;8.87;;;;;;;20.27;49.38;100049.56;682448;28;1339;-78
2023/07/15 00:04:13;;;;;;;17.20;9.70;;;;;;;20.20;49.27;100032.97;687741;28;1429;-78
2023/07/15 00:04:34;;;;;;;20.58;11.43;;;;;;;20.18;49.27;100028.59;684959;28;960;-78
2023/07/15 00:04:54;;;;;;;23.75;12.68;;;;;;;20.18;49.44;100036.56;687817;28;1051;-78
2023/07/15 00:05:25;;;;;;;24.10;12.40;;;;;;;20.20;49.35;100038.25;685265;28;1095;-78
2023/07/15 00:05:47;;;;;;;24.70;11.93;;;;;;;20.26;49.45;100042.53;684744;28;852;-77
2023/07/15 00:06:09;;;;;;;29.27;12.82;;;;;;;20.16;49.52;100025.97;686931;28;1267;-78
2023/07/15 00:06:31;;;;;;;28.38;13.43;;;;;;;20.18;49.52;100032.13;682856;28;1240;-77
2023/07/15 00:06:52;;;;;;;28.77;14.35;;;;;;;20.17;49.53;100025.09;685106;28;1260;-78
2023/07/15 00:07:13;;;;;;;22.33;13.60;;;;;;;20.17;49.43;100033.06;687729;28;1105;-78
2023/07/15 00:07:33;;;;;;;20.63;12.75;;;;;;;20.08;49.80;100023.53;687594;28;1001;-78
2023/07/15 00:07:55;;;;;;;18.38;11.32;;;;;;;20.08;49.79;100028.84;682207;28;1137;-77
2023/07/15 00:08:16;;;;;;;18.45;9.95;;;;;;;20.00;49.80;100021.06;682183;28;1084;-78
2023/07/15 00:08:36;;;;;;;19.25;9.10;;;;;;;19.98;50.07;100027.31;684980;28;1041;-77
2023/07/15 00:08:57;;;;;;;17.15;8.75;;;;;;;19.99;50.05;100037.84;684999;28;1908;-78
2023/07/15 00:09:22;;;;;;;14.07;8.30;;;;;;;19.97;49.88;100037.03;683238;28;1117;-78
2023/07/15 00:09:43;;;;;;;13.70;7.32;;;;;;;19.97;49.99;100037.03;682322;28;1347;-78
2023/07/15 00:10:04;;;;;;;15.50;7.65;;;;;;;19.91;50.17;100037.16;682346;29;998;-77
2023/07/15 00:10:25;;;;;;;19.55;9.70;;;;;;;19.88;49.94;100026.66;684572;28;1244;-78
2023/07/15 00:10:46;;;;;;;18.42;10.95;;;;;;;19.90;50.19;100032.78;679745;28;1266;-78
2023/07/15 00:11:15;;;;;;;17.90;11.00;;;;;;;19.86;50.45;100023.13;679863;28;1279;-78
2023/07/15 00:11:43;;;;;;;13.02;8.60;;;;;;;19.91;50.56;100037.16;684458;28;1008;-78
2023/07/15 00:12:07;;;;;;;10.60;6.78;;;;;;;19.87;50.68;100036.31;682354;29;973;-78
2023/07/15 00:12:27;;;;;;;10.55;6.40;;;;;;;19.82;50.78;100032.03;682432;28;1217;-77
2023/07/15 00:12:48;;;;;;;11.27;6.40;;;;;;;19.80;50.73;100031.22;685235;28;754;-78
2023/07/15 00:13:14;;;;;;;9.93;5.55;;;;;;;19.79;50.84;100026.81;682395;28;1232;-77
2023/07/15 00:13:35;;;;;;;9.05;4.70;;;;;;;19.84;50.83;100040.81;685339;28;938;-78
2023/07/15 00:13:59;;;;;;;9.02;4.40;;;;;;;19.79;50.92;100038.28;685009;28;1216;-78
2023/07/15 00:14:23;;;;;;;9.63;4.40;;;;;;;19.77;50.85;100031.25;677342;28;1466;-78
2023/07/15 00:14:43;;;;;;;9.52;4.30;;;;;;;19.72;50.95;100029.59;682488;29;1243;-78
2023/07/15 00:15:05;;;;;;;9.18;4.38;;;;;;;19.80;50.92;100044.44;685049;28;959;-78
2023/07/15 00:15:26;;;;;;;9.30;4.47;;;;;;;19.76;50.83;100043.63;687684;28;1091;-78
2023/07/15 00:15:50;;;;;;;8.93;4.73;;;;;;;19.71;51.00;100037.56;689862;28;1512;-78
2023/07/15 00:16:10;;;;;;;9.77;5.38;;;;;;;19.69;51.12;100034.97;682559;28;1175;-78
2023/07/15 00:16:31;;;;;;;10.10;5.82;;;;;;;19.71;51.29;100030.50;687306;28;964;-79
2023/07/15 00:16:52;;;;;;;9.10;5.70;;;;;;;19.69;51.24;100016.44;687738;28;1144;-78
2023/07/15 00:17:13;;;;;;;9.17;5.60;;;;;;;19.73;51.07;100034.00;682276;28;1254;-78
2023/07/15 00:17:34;;;;;;;8.70;5.78;;;;;;;19.65;51.22;100020.06;684942;28;1049;-78
2023/07/15 00:17:55;;;;;;;9.02;5.82;;;;;;;19.67;51.29;100017.38;685037;28;954;-78
2023/07/15 00:18:17;;;;;;;9.18;5.78;;;;;;;19.70;51.28;100020.84;685107;28;1270;-78
2023/07/15 00:18:37;;;;;;;11.77;6.10;;;;;;;19.76;51.37;100033.06;679471;29;1129;-78
2023/07/15 00:18:58;;;;;;;12.07;6.32;;;;;;;19.77;51.32;100029.50;682416;28;1203;-78
2023/07/15 00:19:19;;;;;;;14.40;6.85;;;;;;;19.70;51.36;100012.00;682352;28;1069;-78
2023/07/15 00:19:40;;;;;;;12.05;6.78;;;;;;;19.76;51.33;100025.13;690394;28;1319;-78
2023/07/15 00:20:01;;;;;;;14.63;9.03;;;;;;;19.77;51.07;100024.19;682314;28;1076;-78
2023/07/15 00:20:21;;;;;;;15.07;10.38;;;;;;;19.77;51.41;100018.91;682212;28;1030;-78
2023/07/15 00:20:44;;;;;;;21.30;14.40;;;;;;;19.85;51.48;100037.25;677030;28;1304;-77
2023/07/15 00:21:20;;;;;;;26.17;18.45;;;;;;;19.82;51.42;100026.75;682570;28;1375;-78
2023/07/15 00:21:40;;;;;;;38.42;28.33;;;;;;;19.84;51.60;100032.88;684964;28;954;-78
2023/07/15 00:22:02;;;;;;;41.95;30.92;;;;;;;19.76;51.43;100019.81;685052;28;945;-77
2023/07/15 00:22:23;;;;;;;43.17;30.63;;;;;;;19.76;51.43;100011.00;687777;28;1088;-77
2023/07/15 00:22:44;;;;;;;42.33;30.77;;;;;;;19.80;51.36;100023.28;690544;28;775;-78
2023/07/15 00:23:30;;;;;;;43.28;30.00;;;;;;;19.78;51.21;100019.78;687859;28;1389;-78
2023/07/15 00:23:55;;;;;;;39.10;25.13;;;;;;;19.79;51.21;100030.31;683761;28;1138;-78
2023/07/15 00:24:17;;;;;;;29.95;19.70;;;;;;;19.77;51.19;100026.84;684823;28;1073;-77
2023/07/15 00:24:37;;;;;;;24.98;16.17;;;;;;;19.71;51.11;100024.34;679773;29;1101;-78
2023/07/15 00:24:58;;;;;;;21.15;14.48;;;;;;;19.68;50.97;100024.41;679635;29;1063;-78
2023/07/15 00:25:20;;;;;;;21.93;14.67;;;;;;;19.78;51.09;100036.53;681732;29;1478;-77
2023/07/15 00:25:41;;;;;;;21.95;15.18;;;;;;;19.69;51.23;100024.38;681686;28;1072;-78
2023/07/15 00:26:02;;;;;;;21.10;15.17;;;;;;;19.73;51.29;100038.41;688091;28;1081;-78
2023/07/15 00:26:25;;;;;;;18.67;13.85;;;;;;;19.76;51.57;100041.00;687505;28;993;-78
2023/07/15 00:26:47;;;;;;;16.10;12.30;;;;;;;19.66;51.45;100015.66;687842;28;854;-78
2023/07/15 00:27:08;;;;;;;16.70;11.05;;;;;;;19.66;51.44;100026.22;682096;29;1222;-78
2023/07/15 00:27:29;;;;;;;17.08;10.30;;;;;;;19.68;51.42;100030.56;679366;29;1525;-78
2023/07/15 00:27:50;;;;;;;17.05;9.23;;;;;;;19.64;51.32;100018.31;684161;28;1309;-77
2023/07/15 00:28:10;;;;;;;14.40;9.10;;;;;;;19.65;51.46;100025.34;682277;28;1144;-77
2023/07/15 00:28:31;;;;;;;13.43;8.60;;;;;;;19.62;51.40;100024.53;681993;28;1022;-78
2023/07/15 00:28:53;;;;;;;11.77;8.20;;;;;;;19.58;51.38;100016.69;687520;28;1979;-78
2023/07/15 00:29:16;;;;;;;13.00;8.50;;;;;;;19.57;51.61;100024.63;684960;28;1327;-77
2023/07/15 00:29:36;;;;;;;14.20;9.23;;;;;;;19.64;51.55;100034.19;684570;28;1369;-77
2023/07/15 00:29:57;;;;;;;15.50;9.50;;;;;;;19.61;51.48;100039.53;684943;28;1094;-78
2023/07/15 00:30:19;;;;;;;14.73;9.10;;;;;;;19.57;51.59;100032.56;684914;28;1056;-78
2023/07/15 00:30:41;;;;;;;13.65;8.85;;;;;;;19.51;51.81;100017.72;685039;28;1392;-78
2023/07/15 00:31:02;;;;;;;13.80;9.30;;;;;;;19.57;51.81;100033.47;682469;29;1046;-78
2023/07/15 00:31:23;;;;;;;14.73;9.77;;;;;;;19.54;51.82;100030.88;679573;29;975;-78
2023/07/15 00:31:44;;;;;;;14.48;9.70;;;;;;;19.51;51.49;100025.66;687754;28;1209;-78
2023/07/15 00:32:11;;;;;;;13.27;9.30;;;;;;;19.50;51.85;100023.03;684322;28;997;-78
2023/07/15 00:32:32;;;;;;;12.20;8.75;;;;;;;19.50;51.85;100026.56;679475;28;1359;-78
2023/07/15 00:32:53;;;;;;;12.65;8.68;;;;;;;19.49;51.85;100021.28;679949;29;1148;-78
2023/07/15 00:33:16;;;;;;;12.63;8.82;;;;;;;19.47;51.90;100028.41;685112;28;1088;-78
2023/07/15 00:33:37;;;;;;;12.75;9.18;;;;;;;19.45;51.86;100024.00;685301;28;1291;-78
2023/07/15 00:33:58;;;;;;;13.73;8.80;;;;;;;19.51;51.60;100032.69;687740;28;1044;-78
2023/07/15 00:34:20;;;;;;;13.98;8.52;;;;;;;19.42;51.78;100029.34;684787;28;1124;-77
2023/07/15 00:34:42;;;;;;;12.50;8.20;;;;;;;19.45;51.97;100026.66;685061;28;930;-77
2023/07/15 00:35:18;;;;;;;10.75;8.02;;;;;;;19.43;52.12;100035.53;679826;29;1125;-78
2023/07/15 00:35:39;;;;;;;10.40;7.45;;;;;;;19.38;52.24;100027.69;681629;28;1129;-78
2023/07/15 00:36:00;;;;;;;9.98;6.95;;;;;;;19.35;52.10;100021.59;684976;28;1181;-77
2023/07/15 00:36:21;;;;;;;10.63;7.05;;;;;;;19.34;52.04;100022.47;684978;28;1096;-77
2023/07/15 00:36:41;;;;;;;9.38;6.65;;;;;;;19.35;52.34;100021.59;682370;28;982;-77
2023/07/15 00:37:02;;;;;;;9.70;6.87;;;;;;;19.34;52.14;100020.69;679687;29;1103;-78
2023/07/15 00:37:25;;;;;;;10.15;7.03;;;;;;;19.35;52.40;100019.78;683586;28;1098;-78
2023/07/15 00:37:48;;;;;;;11.52;7.50;;;;;;;19.32;52.50;100018.06;684974;28;1128;-77
2023/07/15 00:38:10;;;;;;;13.20;7.75;;;;;;;19.39;52.71;100020.59;687569;28;1159;-78
2023/07/15 00:38:31;;;;;;;13.73;7.57;;;;;;;19.35;52.80;100033.03;689303;28;1146;-78
2023/07/15 00:38:53;;;;;;;12.20;7.00;;;;;;;19.39;52.65;100037.34;693349;28;795;-77
2023/07/15 00:39:14;;;;;;;8.82;6.60;;;;;;;19.31;52.63;100018.13;687556;28;1835;-78
2023/07/15 00:39:35;;;;;;;8.98;6.40;;;;;;;19.32;52.56;100027.81;687489;28;1070;-78
2023/07/15 00:39:56;;;;;;;8.95;6.45;;;;;;;19.31;52.64;100026.06;677100;28;1159;-78
2023/07/15 00:40:18;;;;;;;9.52;6.03;;;;;;;19.28;52.49;100027.00;682428;29;1027;-78
2023/07/15 00:40:44;;;;;;;9.07;5.60;;;;;;;19.35;52.67;100034.81;679877;28;1499;-78
2023/07/15 00:41:15;;;;;;;7.75;4.85;;;;;;;19.31;52.71;100042.78;682391;29;1123;-78
2023/07/15 00:41:35;;;;;;;7.60;4.78;;;;;;;19.23;52.95;100028.00;679444;29;1037;-78
2023/07/15 00:42:03;;;;;;;8.70;5.23;;;;;;;19.21;52.85;100021.84;684942;28;1346;-78
2023/07/15 00:43:17;;;;;;;10.30;6.00;;;;;;;19.29;53.33;100035.78;687445;28;1131;-78
2023/07/15 00:44:14;;;;;;;10.88;6.80;;;;;;;19.34;53.58;100041.88;685220;28;1219;-77
2023/07/15 00:44:34;;;;;;;9.02;5.50;;;;;;;19.29;53.32;100034.03;682106;29;1061;-78
2023/07/15 00:44:56;;;;;;;7.40;5.30;;;;;;;19.34;53.39;100043.63;684805;28;1172;-78
2023/07/15 00:45:17;;;;;;;6.20;4.90;;;;;;;19.31;53.35;100041.94;679804;28;1108;-77
2023/07/15 00:45:37;;;;;;;7.30;4.90;;;;;;;19.29;53.46;100039.31;683265;28;1338;-78
2023/07/15 00:46:43;;;;;;;9.32;4.90;;;;;;;19.28;53.23;100037.56;682418;28;1081;-77
2023/07/15 00:47:40;;;;;;;10.55;4.90;;;;;;;19.25;53.17;100042.91;683577;28;1159;-77
2023/07/15 00:48:21;;;;;;;8.75;5.30;;;;;;;19.25;53.34;100034.13;683168;28;1219;-78
2023/07/15 00:48:52;;;;;;;9.32;5.20;;;;;;;19.15;53.32;100020.19;680156;28;1141;-78
2023/07/15 00:49:21;;;;;;;8.38;4.90;;;;;;;19.18;53.49;100034.22;682831;28;1146;-78
2023/07/15 00:49:43;;;;;;;7.10;4.70;;;;;;;19.08;53.79;100010.63;682861;28;1230;-78
2023/07/15 00:50:06;;;;;;;7.05;4.80;;;;;;;19.20;53.81;100028.91;691363;28;1117;-78
2023/07/15 00:50:26;;;;;;;9.07;4.90;;;;;;;19.12;53.76;100021.13;688145;28;933;-78
2023/07/15 00:50:47;;;;;;;10.20;5.00;;;;;;;19.12;53.89;100015.84;685616;28;956;-78
2023/07/15 00:51:08;;;;;;;10.30;5.00;;;;;;;19.14;54.14;100019.34;688247;28;933;-78
2023/07/15 00:51:33;;;;;;;8.35;4.60;;;;;;;19.24;54.20;100040.31;688037;28;1228;-78
2023/07/15 00:52:09;;;;;;;8.77;4.60;;;;;;;19.16;54.20;100022.81;688219;28;1004;-78
2023/07/15 00:52:30;;;;;;;9.90;4.57;;;;;;;19.28;54.43;100031.41;687954;28;1007;-78
2023/07/15 00:52:51;;;;;;;8.43;4.40;;;;;;;19.17;54.15;100013.97;688355;28;845;-77
2023/07/15 00:53:12;;;;;;;6.60;4.33;;;;;;;19.28;54.14;100029.63;687820;28;1305;-78
2023/07/15 00:53:33;;;;;;;6.70;4.55;;;;;;;19.20;54.37;100013.06;682728;29;1192;-77
2023/07/15 00:53:54;;;;;;;6.90;4.70;;;;;;;19.28;54.36;100031.41;685440;28;1029;-78
2023/07/15 00:54:15;;;;;;;6.97;4.80;;;;;;;19.25;54.22;100018.25;685467;28;1194;-77
2023/07/15 00:54:38;;;;;;;8.65;4.85;;;;;;;19.15;54.05;100004.34;685437;28;1269;-78
2023/07/15 00:55:01;;;;;;;9.20;5.20;;;;;;;19.22;54.12;100015.66;682848;28;1018;-77
2023/07/15 00:55:22;;;;;;;8.10;5.03;;;;;;;19.15;54.07;100015.78;685462;28;1052;-78
2023/07/15 00:55:43;;;;;;;9.73;4.72;;;;;;;19.28;53.96;100031.41;680810;29;1033;-78
2023/07/15 00:56:04;;;;;;;9.68;4.70;;;;;;;19.15;53.86;100021.09;682710;29;1265;-78
2023/07/15 00:56:26;;;;;;;10.00;4.90;;;;;;;19.14;53.84;100019.34;685435;28;1150;-78
2023/07/15 00:56:46;;;;;;;7.47;5.03;;;;;;;19.15;53.60;100014.91;688329;28;809;-78
2023/07/15 00:57:09;;;;;;;7.97;4.97;;;;;;;19.18;53.56;100026.31;682447;29;1268;-78
2023/07/15 00:57:30;;;;;;;7.70;4.80;;;;;;;19.22;53.47;100028.88;677430;29;1092;-78
2023/07/15 00:57:51;;;;;;;7.40;4.65;;;;;;;19.14;53.45;100021.09;682989;29;781;-78
2023/07/15 00:58:11;;;;;;;6.07;4.50;;;;;;;19.14;53.62;100024.63;685501;28;1109;-78
2023/07/15 00:58:32;;;;;;;6.17;4.57;;;;;;;19.06;53.48;100017.75;690635;28;1127;-78
2023/07/15 00:58:54;;;;;;;8.10;4.50;;;;;;;19.07;53.72;100016.84;688262;28;1090;-78
2023/07/15 00:59:16;;;;;;;8.27;4.70;;;;;;;19.09;53.76;100025.59;685114;28;1379;-78
2023/07/15 00:59:39;;;;;;;8.63;4.90;;;;;;;19.02;53.72;100020.41;688132;28;970;-78
2023/07/15 01:00:03;;;;;;;7.30;5.07;;;;;;;19.07;53.80;100027.41;685540;28;990;-77
2023/07/15 01:00:25;;;;;;;7.38;5.00;;;;;;;19.07;53.72;100028.28;685253;28;1393;-78
2023/07/15 01:00:46;;;;;;;8.00;5.10;;;;;;;19.09;54.06;100029.13;687591;28;1414;-78
2023/07/15 01:01:10;;;;;;;7.70;5.18;;;;;;;18.99;54.17;100014.31;685739;28;996;-77
2023/07/15 01:01:32;;;;;;;6.95;5.38;;;;;;;18.97;54.32;100016.09;682890;28;1340;-78
2023/07/15 01:01:53;;;;;;;6.60;5.10;;;;;;;18.98;54.21;100016.06;679936;29;908;-78
2023/07/15 01:02:15;;;;;;;6.85;5.03;;;;;;;19.04;54.35;100023.03;680350;28;1356;-78
2023/07/15 01:02:37;;;;;;;6.32;4.90;;;;;;;18.96;54.40;100012.59;680203;29;1129;-78
2023/07/15 01:02:57;;;;;;;6.93;4.97;;;;;;;18.97;54.58;100010.81;680199;28;1196;-78
2023/07/15 01:03:18;;;;;;;7.63;5.00;;;;;;;18.98;54.62;100013.44;688153;28;1131;-77
2023/07/15 01:03:40;;;;;;;8.75;5.18;;;;;;;19.02;54.42;100019.53;682873;28;1433;-78
2023/07/15 01:04:01;;;;;;;8.35;5.10;;;;;;;19.02;54.25;100016.91;682812;29;973;-78
2023/07/15 01:04:24;;;;;;;7.27;4.73;;;;;;;18.98;54.49;100004.63;690829;28;1130;-78
2023/07/15 01:04:45;;;;;;;6.87;4.90;;;;;;;19.06;54.38;100031.84;688282;28;1146;-78
2023/07/15 01:05:08;;;;;;;7.18;4.95;;;;;;;18.98;54.08;100007.25;685485;28;1052;-77
2023/07/15 01:05:29;;;;;;;7.55;5.20;;;;;;;18.99;54.20;100017.81;687187;28;1138;-77
2023/07/15 01:05:51;;;;;;;7.10;4.88;;;;;;;18.93;54.10;100010.00;685177;28;795;-78
2023/07/15 01:06:12;;;;;;;7.40;5.10;;;;;;;18.94;54.12;100010.88;685407;28;1181;-78
2023/07/15 01:06:35;;;;;;;7.50;4.88;;;;;;;18.90;54.08;100015.34;685325;28;1084;-78
2023/07/15 01:06:56;;;;;;;7.43;4.78;;;;;;;18.99;54.21;100025.75;685528;28;1143;-78
2023/07/15 01:07:17;;;;;;;7.30;4.50;;;;;;;18.98;54.30;100023.13;690740;28;1280;-78
2023/07/15 01:07:37;;;;;;;6.78;4.45;;;;;;;18.88;54.59;100011.88;696311;28;1185;-77
2023/07/15 01:07:58;;;;;;;7.43;4.50;;;;;;;18.86;54.68;100014.53;688204;28;1277;-78
2023/07/15 01:08:18;;;;;;;7.97;4.60;;;;;;;18.91;54.66;100017.97;687976;28;1096;-78
2023/07/15 01:08:39;;;;;;;9.35;4.57;;;;;;;18.85;54.61;100007.50;685631;28;989;-78
2023/07/15 01:09:01;;;;;;;8.60;4.25;;;;;;;18.89;54.51;100009.19;680115;29;1934;-78
2023/07/15 01:09:24;;;;;;;10.23;4.68;;;;;;;18.98;54.80;100023.13;684915;28;1717;-77
2023/07/15 01:09:46;;;;;;;8.80;4.80;;;;;;;18.95;54.63;100018.78;684806;28;976;-77
2023/07/15 01:10:07;;;;;;;8.02;4.80;;;;;;;19.01;54.64;100017.78;685943;28;1299;-78
2023/07/15 01:10:28;;;;;;;6.53;4.60;;;;;;;18.96;54.73;100006.44;687884;28;1033;-78
2023/07/15 01:10:49;;;;;;;6.57;4.67;;;;;;;18.99;54.70;100014.31;688338;28;803;-78
2023/07/15 01:11:10;;;;;;;7.80;4.78;;;;;;;18.97;55.10;100010.81;680126;29;1104;-78
2023/07/15 01:11:33;;;;;;;8.20;4.80;;;;;;;18.94;54.97;100010.88;685261;28;1189;-79
2023/07/15 01:11:54;;;;;;;8.63;4.80;;;;;;;18.95;55.18;100016.16;680200;28;1212;-77
2023/07/15 01:12:15;;;;;;;7.45;4.70;;;;;;;18.90;55.23;100010.06;682849;29;1022;-78
2023/07/15 01:12:36;;;;;;;7.13;4.50;;;;;;;18.95;55.13;100013.50;682734;29;951;-77
2023/07/15 01:12:56;;;;;;;6.82;4.53;;;;;;;19.01;54.88;100026.59;688115;28;1191;-78
2023/07/15 01:13:17;;;;;;;7.22;4.80;;;;;;;18.95;54.93;100012.63;688123;28;1013;-78
2023/07/15 01:13:39;;;;;;;7.70;5.28;;;;;;;18.95;54.88;100018.78;685610;28;982;-78
2023/07/15 01:14:00;;;;;;;7.27;5.20;;;;;;;18.90;55.08;100008.31;685587;28;1054;-78
2023/07/15 01:14:21;;;;;;;6.25;4.90;;;;;;;18.86;55.04;100003.97;682802;29;1129;-78
2023/07/15 01:14:43;;;;;;;8.20;4.78;;;;;;;18.91;55.02;100017.97;682836;29;871;-78
2023/07/15 01:15:05;;;;;;;10.27;5.32;;;;;;;18.97;54.82;100026.66;685557;28;1134;-78
2023/07/15 01:15:25;;;;;;;11.95;5.50;;;;;;;18.83;54.94;100011.97;682646;29;1248;-78
2023/07/15 01:15:47;;;;;;;10.15;5.35;;;;;;;18.95;55.05;100028.47;677195;29;1160;-78
2023/07/15 01:16:08;;;;;;;8.57;5.10;;;;;;;18.92;54.86;100018.84;682763;29;987;-78
2023/07/15 01:16:29;;;;;;;8.27;4.93;;;;;;;18.94;55.11;100026.75;685991;28;1747;-78
2023/07/15 01:16:50;;;;;;;7.57;4.80;;;;;;;18.80;55.10;100019.94;688236;28;1191;-77
2023/07/15 01:17:10;;;;;;;8.07;4.78;;;;;;;18.81;55.07;100023.47;682766;28;1128;-78
2023/07/15 01:17:32;;;;;;;7.60;4.95;;;;;;;18.77;55.34;100020.84;684923;28;1146;-77
2023/07/15 01:17:52;;;;;;;7.68;4.70;;;;;;;18.81;55.05;100024.31;680437;29;847;-77
2023/07/15 01:18:13;;;;;;;7.15;4.63;;;;;;;18.80;55.29;100019.06;682843;29;906;-78
2023/07/15 01:18:34;;;;;;;6.35;4.60;;;;;;;18.79;55.28;100017.34;678098;28;1185;-78
2023/07/15 01:18:56;;;;;;;7.60;5.10;;;;;;;18.84;55.25;100026.91;677612;29;1054;-78
2023/07/15 01:19:19;;;;;;;7.32;5.13;;;;;;;18.86;55.33;100030.41;680049;29;986;-78
2023/07/15 01:19:39;;;;;;;8.33;5.20;;;;;;;18.82;55.55;100028.72;680115;28;1217;-78
2023/07/15 01:20:00;;;;;;;8.77;5.03;;;;;;;18.79;55.59;100018.19;682790;28;1072;-78
2023/07/15 01:20:25;;;;;;;9.25;4.88;;;;;;;18.82;55.47;100017.28;685264;28;1167;-78
2023/07/15 01:20:47;;;;;;;8.68;4.70;;;;;;;18.80;55.47;100019.94;685476;28;872;-78
2023/07/15 01:21:08;;;;;;;7.75;4.63;;;;;;;18.79;55.51;100015.53;687532;28;1212;-78
2023/07/15 01:21:33;;;;;;;6.80;4.50;;;;;;;18.82;55.43;100028.72;685222;28;1026;-77
2023/07/15 01:21:55;;;;;;;6.07;4.47;;;;;;;18.70;55.53;100008.69;680513;29;1246;-77
2023/07/15 01:22:17;;;;;;;6.50;4.55;;;;;;;18.71;55.70;100010.41;683058;29;1088;-78
2023/07/15 01:22:38;;;;;;;9.68;5.18;;;;;;;18.75;55.70;100016.53;682816;28;1208;-78
2023/07/15 01:22:58;;;;;;;9.98;5.13;;;;;;;18.72;55.82;100011.28;685298;28;1062;-77
2023/07/15 01:23:19;;;;;;;9.93;5.13;;;;;;;18.78;55.69;100024.38;685211;28;1059;-77
2023/07/15 01:23:40;;;;;;;8.05;4.75;;;;;;;18.73;55.91;100013.00;685505;28;1239;-77
2023/07/15 01:24:02;;;;;;;7.60;4.75;;;;;;;18.67;55.87;100003.44;682917;29;974;-78
2023/07/15 01:24:26;;;;;;;7.80;4.88;;;;;;;18.74;56.08;100015.63;690820;28;927;-78
2023/07/15 01:24:47;;;;;;;7.13;4.70;;;;;;;18.63;56.10;100002.59;688303;28;898;-78
2023/07/15 01:25:08;;;;;;;7.75;4.63;;;;;;;18.67;56.05;100010.50;685491;28;989;-78
2023/07/15 01:25:29;;;;;;;10.02;4.40;;;;;;;18.67;55.92;100010.50;679941;29;1001;-78
2023/07/15 01:25:49;;;;;;;10.23;4.43;;;;;;;18.63;55.89;100009.69;679823;29;760;-77
2023/07/15 01:26:10;;;;;;;7.53;4.23;;;;;;;18.67;55.96;100015.78;685386;28;1190;-78
2023/07/15 01:26:31;;;;;;;6.05;4.38;;;;;;;18.68;55.89;100021.03;686173;28;1001;-78
2023/07/15 01:27:00;;;;;;;6.03;4.50;;;;;;;18.71;55.97;100021.00;685067;28;1455;-78
2023/07/15 01:27:21;;;;;;;8.95;4.60;;;;;;;18.66;56.19;100014.03;687161;28;1246;-78
2023/07/15 01:27:42;;;;;;;8.63;4.45;;;;;;;18.61;56.00;100009.69;688029;28;1424;-77
2023/07/15 01:28:03;;;;;;;8.95;4.50;;;;;;;18.62;56.23;100014.09;688056;28;1104;-78
2023/07/15 01:28:24;;;;;;;6.70;4.60;;;;;;;18.67;56.17;100013.16;688106;28;1016;-78
2023/07/15 01:28:45;;;;;;;7.50;4.90;;;;;;;18.61;56.20;100009.69;688326;28;1336;-78
2023/07/15 01:29:05;;;;;;;7.15;4.65;;;;;;;18.67;56.49;100023.72;685281;28;1914;-77
2023/07/15 01:29:26;;;;;;;7.73;4.87;;;;;;;18.60;56.31;100009.72;687991;28;1086;-78
2023/07/15 01:29:47;;;;;;;7.28;4.50;;;;;;;18.55;56.50;100003.66;688298;28;929;-77
2023/07/15 01:30:09;;;;;;;8.13;4.80;;;;;;;18.66;56.63;100027.22;682847;28;1140;-77
2023/07/15 01:30:30;;;;;;;8.45;4.72;;;;;;;18.64;56.77;100019.34;689134;28;1562;-78
2023/07/15 01:30:50;;;;;;;8.65;5.00;;;;;;;18.58;56.74;100007.13;687546;28;1212;-77
2023/07/15 01:31:14;;;;;;;8.23;4.80;;;;;;;18.56;56.84;100006.25;682672;29;1271;-77
2023/07/15 01:31:36;;;;;;;7.40;4.63;;;;;;;18.57;56.83;100008.00;682751;29;1065;-78
2023/07/15 01:31:56;;;;;;;7.15;4.53;;;;;;;18.58;56.84;100003.59;682854;29;1060;-78
2023/07/15 01:32:17;;;;;;;5.90;4.40;;;;;;;18.56;57.08;100002.75;685442;28;1179;-78
2023/07/15 01:32:38;;;;;;;5.80;4.57;;;;;;;18.60;57.13;100013.25;686171;28;1311;-77
2023/07/15 01:32:59;;;;;;;6.30;4.47;;;;;;;18.59;57.06;100006.22;682857;29;1005;-78
2023/07/15 01:33:19;;;;;;;7.63;4.70;;;;;;;18.54;57.21;100001.91;688536;28;1319;-78
2023/07/15 01:33:40;;;;;;;7.80;4.40;;;;;;;18.58;57.11;100009.78;688247;28;1135;-78
2023/07/15 01:34:01;;;;;;;6.97;4.20;;;;;;;18.64;57.31;100014.06;686112;28;1290;-77
2023/07/15 01:34:22;;;;;;;6.90;4.10;;;;;;;18.63;57.24;100010.53;687064;28;1052;-77
2023/07/15 01:34:43;;;;;;;7.03;4.18;;;;;;;18.60;57.23;100007.97;680177;29;1188;-78
2023/07/15 01:35:04;;;;;;;8.18;4.50;;;;;;;18.64;57.38;100017.56;684726;28;1313;-78
2023/07/15 01:35:24;;;;;;;7.32;4.63;;;;;;;18.59;57.17;100005.34;682640;28;1019;-78
2023/07/15 01:35:49;;;;;;;7.30;5.00;;;;;;;18.60;57.07;100002.69;685011;28;868;-78
2023/07/15 01:36:24;;;;;;;7.40;4.70;;;;;;;18.54;57.05;99997.50;677559;29;1226;-78
2023/07/15 01:36:44;;;;;;;7.13;4.88;;;;;;;18.62;57.20;100026.41;680182;29;827;-77
2023/07/15 01:37:05;;;;;;;7.28;5.35;;;;;;;18.53;57.30;100003.69;680092;28;1195;-78
2023/07/15 01:37:26;;;;;;;7.00;5.10;;;;;;;18.53;57.04;100001.03;679883;28;1149;-78
2023/07/15 01:37:47;;;;;;;12.83;5.10;;;;;;;18.48;57.18;99998.47;680203;28;1039;-78
2023/07/15 01:38:07;;;;;;;12.40;4.88;;;;;;;18.57;57.11;100015.94;685366;28;1004;-78
2023/07/15 01:38:28;;;;;;;13.80;5.10;;;;;;;18.53;56.87;100010.72;685013;28;1243;-77
2023/07/15 01:38:49;;;;;;;8.00;4.97;;;;;;;18.53;57.13;100011.59;682831;29;838;-78
2023/07/15 01:39:09;;;;;;;8.18;4.90;;;;;;;18.50;57.02;100004.59;685331;28;1090;-77
2023/07/15 01:39:31;;;;;;;7.63;4.82;;;;;;;18.53;57.15;100008.97;682473;29;1006;-78
2023/07/15 01:39:52;;;;;;;7.43;4.80;;;;;;;18.55;57.26;100020.38;681005;28;1004;-78
2023/07/15 01:40:13;;;;;;;7.00;4.63;;;;;;;18.56;57.21;100013.34;682935;28;1037;-78
2023/07/15 01:40:33;;;;;;;7.80;4.72;;;;;;;18.45;57.28;100003.81;686721;28;1081;-78
2023/07/15 01:40:54;;;;;;;8.65;4.95;;;;;;;18.47;57.10;100001.13;682551;28;1185;-78
2023/07/15 01:41:15;;;;;;;7.80;5.13;;;;;;;18.55;57.17;100009.81;680077;29;1241;-78
2023/07/15 01:41:38;;;;;;;8.30;5.57;;;;;;;18.49;57.30;99996.69;682808;28;1230;-78
2023/07/15 01:42:01;;;;;;;8.40;5.28;;;;;;;18.55;57.42;100009.81;682596;28;1115;-78
2023/07/15 01:42:21;;;;;;;9.73;5.13;;;;;;;18.47;57.38;99995.84;679735;29;1291;-78
2023/07/15 01:42:42;;;;;;;8.73;4.88;;;;;;;18.47;57.54;100001.13;679925;28;1137;-78
2023/07/15 01:43:04;;;;;;;8.07;4.90;;;;;;;18.60;57.25;100018.53;687328;28;1307;-78
2023/07/15 01:43:25;;;;;;;7.82;4.88;;;;;;;18.53;57.21;99994.88;687770;28;1064;-77
2023/07/15 01:43:45;;;;;;;8.20;5.20;;;;;;;18.55;57.08;100009.81;680074;28;1054;-78
2023/07/15 01:44:06;;;;;;;7.93;5.35;;;;;;;18.51;57.05;100008.13;682001;29;1200;-77
2023/07/15 01:44:27;;;;;;;9.90;5.47;;;;;;;18.53;57.10;100006.31;682326;29;1315;-78
2023/07/15 01:44:47;;;;;;;10.10;5.50;;;;;;;18.55;57.24;100004.53;688002;28;778;-77
2023/07/15 01:45:09;;;;;;;10.07;5.47;;;;;;;18.54;57.47;100005.44;683301;28;1049;-78
2023/07/15 01:45:30;;;;;;;7.82;5.40;;;;;;;18.52;57.20;100015.16;682446;28;911;-78
2023/07/15 01:45:52;;;;;;;7.70;5.15;;;;;;;18.49;57.29;99999.34;679914;29;820;-78
2023/07/15 01:46:13;;;;;;;8.10;5.47;;;;;;;18.52;57.27;99998.41;685116;28;1140;-78
2023/07/15 01:46:36;;;;;;;8.18;5.50;;;;;;;18.56;57.22;100000.97;682831;28;1160;-78
2023/07/15 01:46:56;;;;;;;9.68;5.90;;;;;;;18.58;57.18;100004.47;679859;28;1117;-77
2023/07/15 01:47:17;;;;;;;9.10;5.70;;;;;;;18.57;56.93;99997.44;679995;29;1174;-78
2023/07/15 01:47:38;;;;;;;8.70;5.93;;;;;;;18.58;56.91;100014.16;675151;29;1036;-78